Time;durP1;ratioP1;P1;durP2;ratioP2;P2;SDS_P1;SDS_P2;PMS_P1;PMS_P2;Temp;Humidity;BMP_temperature;BMP_pressure;BME280_temperature;BME280_humidity;BME280_pressure;Samples;Min_cycle;Max_cycle;Signal;HPM_P1;HPM_P2
2021/10/15 00:02:21;;;;;;;8.70;5.40;;;11.80;1.00;;;;;;5121016;27;20487;-60
2021/10/15 00:04:48;;;;;;;8.83;5.93;;;11.80;1.00;;;;;;5119148;28;20491;-59
2021/10/15 00:07:15;;;;;;;7.47;4.87;;;11.70;1.00;;;;;;5119508;28;20513;-57
2021/10/15 00:09:42;;;;;;;8.90;6.00;;;11.60;1.00;;;;;;5119307;28;20528;-60
2021/10/15 00:12:12;;;;;;;6.20;5.20;;;11.60;1.00;;;;;;5119604;28;20881;-57
2021/10/15 00:14:43;;;;;;;10.20;5.70;;;11.50;1.00;;;;;;5119707;28;20497;-58
2021/10/15 00:17:10;;;;;;;10.20;5.40;;;11.50;1.00;;;;;;5119248;28;20471;-55
2021/10/15 00:19:41;;;;;;;8.53;5.30;;;11.40;1.00;;;;;;5119001;28;20504;-56
2021/10/15 00:22:08;;;;;;;13.80;6.20;;;11.40;1.00;;;;;;5119613;28;20513;-56
2021/10/15 00:24:35;;;;;;;6.00;4.87;;;11.40;1.00;;;;;;5119290;28;20434;-58
2021/10/15 00:27:07;;;;;;;9.97;6.07;;;11.30;1.00;;;;;;5123599;27;20962;-59
2021/10/15 00:29:34;;;;;;;9.40;6.63;;;11.40;1.00;;;;;;5139900;27;20462;-56
2021/10/15 00:32:03;;;;;;;9.30;5.50;;;11.30;1.00;;;;;;5139626;27;20459;-56
2021/10/15 00:34:31;;;;;;;7.50;5.77;;;11.30;1.00;;;;;;5140045;27;20462;-55
2021/10/15 00:36:59;;;;;;;8.00;5.77;;;11.40;1.00;;;;;;5139815;27;20819;-59
2021/10/15 00:39:26;;;;;;;11.43;6.60;;;11.30;1.00;;;;;;5139239;27;20490;-59
2021/10/15 00:41:56;;;;;;;8.20;6.20;;;11.40;1.00;;;;;;5139501;27;20522;-57
2021/10/15 00:44:23;;;;;;;13.93;6.60;;;11.40;1.00;;;;;;5140040;27;20466;-58
2021/10/15 00:46:50;;;;;;;7.73;6.27;;;11.40;1.00;;;;;;5139552;27;20917;-59
2021/10/15 00:49:19;;;;;;;10.70;6.40;;;11.40;1.00;;;;;;5138984;27;20462;-58
2021/10/15 00:51:49;;;;;;;11.83;5.97;;;11.40;1.00;;;;;;5139211;27;20459;-59
2021/10/15 00:54:18;;;;;;;8.10;6.57;;;11.40;1.00;;;;;;5139397;27;20433;-53
2021/10/15 00:56:46;;;;;;;9.20;6.00;;;11.40;1.00;;;;;;5139268;27;20500;-59
2021/10/15 00:59:13;;;;;;;13.73;6.10;;;11.40;1.00;;;;;;5138995;27;20487;-59
2021/10/15 01:01:41;;;;;;;14.17;6.30;;;11.40;1.00;;;;;;5125668;27;20491;-59
2021/10/15 01:04:08;;;;;;;9.80;5.40;;;11.40;1.00;;;;;;5118382;28;20839;-59
2021/10/15 01:06:36;;;;;;;10.77;6.43;;;11.40;1.00;;;;;;5118049;28;20463;-59
2021/10/15 01:09:05;;;;;;;10.23;6.10;;;11.40;1.00;;;;;;5118317;28;20434;-59
2021/10/15 01:11:36;;;;;;;14.73;5.57;;;11.40;1.00;;;;;;5118202;28;20512;-58
2021/10/15 01:14:04;;;;;;;10.60;6.43;;;11.40;1.00;;;;;;5118336;28;20459;-55
2021/10/15 01:16:32;;;;;;;8.43;5.87;;;11.30;1.00;;;;;;5118340;28;20463;-57
2021/10/15 01:19:02;;;;;;;9.97;6.27;;;11.30;1.00;;;;;;5118491;28;20854;-57
2021/10/15 01:21:33;;;;;;;7.50;5.90;;;11.30;1.00;;;;;;5117715;28;20548;-56
2021/10/15 01:24:02;;;;;;;9.37;6.30;;;11.20;1.00;;;;;;5118463;28;20481;-57
2021/10/15 01:26:29;;;;;;;6.50;5.13;;;11.20;1.00;;;;;;5118470;28;20493;-58
2021/10/15 01:28:58;;;;;;;11.63;5.60;;;11.20;1.00;;;;;;5138731;27;20437;-58
2021/10/15 01:31:27;;;;;;;8.37;5.47;;;11.20;1.00;;;;;;5138187;27;20455;-58
2021/10/15 01:33:57;;;;;;;10.10;6.10;;;11.10;1.00;;;;;;5138588;27;20486;-58
2021/10/15 01:36:24;;;;;;;7.67;5.37;;;11.20;1.00;;;;;;5138455;27;20916;-59
2021/10/15 01:38:53;;;;;;;8.13;5.30;;;11.10;1.00;;;;;;5138581;27;20454;-58
2021/10/15 01:41:20;;;;;;;7.50;5.60;;;11.10;1.00;;;;;;5138297;27;20548;-58
2021/10/15 01:43:50;;;;;;;11.80;5.60;;;11.00;1.00;;;;;;5138340;27;20433;-57
2021/10/15 01:46:17;;;;;;;9.90;6.13;;;11.00;1.00;;;;;;5138366;27;20520;-56
2021/10/15 01:48:45;;;;;;;12.33;6.63;;;10.90;1.00;;;;;;5138728;27;20491;-59
2021/10/15 01:51:14;;;;;;;10.30;6.07;;;10.90;1.00;;;;;;5137652;27;20481;-59
2021/10/15 01:53:41;;;;;;;9.00;6.43;;;10.80;1.00;;;;;;5138204;27;20501;-57
2021/10/15 01:56:10;;;;;;;8.20;5.97;;;10.70;1.00;;;;;;5138441;27;20541;-59
2021/10/15 01:58:43;;;;;;;8.80;5.60;;;10.70;1.00;;;;;;5138661;27;20516;-53
2021/10/15 02:01:10;;;;;;;9.60;5.80;;;10.60;1.00;;;;;;5128894;27;20494;-56
2021/10/15 02:03:37;;;;;;;9.97;6.17;;;10.60;1.00;;;;;;5117874;28;20499;-55
2021/10/15 02:06:08;;;;;;;9.67;6.03;;;10.50;1.00;;;;;;5117582;28;20906;-59
2021/10/15 02:08:35;;;;;;;7.50;5.90;;;10.40;1.00;;;;;;5117998;28;20459;-57
2021/10/15 02:11:05;;;;;;;6.70;6.10;;;10.40;1.00;;;;;;5117831;28;20451;-59
2021/10/15 02:13:38;;;;;;;8.43;6.90;;;10.40;1.00;;;;;;5117469;28;20471;-58
2021/10/15 02:16:05;;;;;;;11.03;5.97;;;10.40;1.00;;;;;;5117871;28;20803;-58
2021/10/15 02:18:32;;;;;;;12.27;6.60;;;10.30;1.00;;;;;;5117687;28;20460;-52
2021/10/15 02:20:59;;;;;;;10.47;7.00;;;10.30;1.00;;;;;;5117738;28;20462;-58
2021/10/15 02:23:26;;;;;;;9.50;6.30;;;10.30;1.00;;;;;;5120465;28;20491;-56
2021/10/15 02:25:53;;;;;;;9.57;5.60;;;10.30;1.00;;;;;;5121516;28;20455;-55
2021/10/15 02:28:20;;;;;;;8.60;7.70;;;10.20;1.00;;;;;;5136906;27;20466;-57
2021/10/15 02:30:49;;;;;;;11.17;5.80;;;10.20;1.00;;;;;;5142221;27;20921;-57
2021/10/15 02:33:16;;;;;;;8.37;5.93;;;10.10;1.00;;;;;;5141647;27;20462;-53
2021/10/15 02:35:43;;;;;;;11.40;6.67;;;10.10;1.00;;;;;;5142125;27;20848;-58
2021/10/15 02:38:10;;;;;;;8.93;7.10;;;10.00;1.00;;;;;;5142205;27;20933;-55
2021/10/15 02:40:37;;;;;;;14.27;7.23;;;10.00;1.00;;;;;;5142046;27;20889;-58
2021/10/15 02:43:04;;;;;;;10.20;7.00;;;9.90;1.00;;;;;;5141657;27;20903;-59
2021/10/15 02:45:32;;;;;;;10.53;7.07;;;9.90;1.00;;;;;;5141601;27;20433;-59
2021/10/15 02:48:00;;;;;;;10.17;7.07;;;9.80;1.00;;;;;;5141794;27;20980;-59
2021/10/15 02:50:27;;;;;;;9.87;6.90;;;9.90;1.00;;;;;;5142184;27;20485;-59
2021/10/15 02:52:54;;;;;;;11.03;7.37;;;9.80;1.00;;;;;;5141769;27;20546;-58
2021/10/15 02:55:24;;;;;;;14.60;8.13;;;9.80;1.00;;;;;;5141430;27;20458;-56
2021/10/15 02:57:51;;;;;;;11.43;8.57;;;9.80;1.00;;;;;;5141477;27;20791;-58
2021/10/15 03:00:19;;;;;;;14.40;7.43;;;9.70;6.60;;;;;;5140307;27;20511;-56
2021/10/15 03:02:46;;;;;;;10.50;8.37;;;9.70;14.90;;;;;;5120897;27;20487;-54
2021/10/15 03:05:15;;;;;;;10.50;7.30;;;9.70;22.10;;;;;;5120571;28;20459;-59
2021/10/15 03:07:42;;;;;;;10.33;7.90;;;9.70;57.70;;;;;;5120238;28;20458;-58
2021/10/15 03:10:09;;;;;;;12.93;8.20;;;9.70;99.90;;;;;;5120922;28;20824;-58
2021/10/15 03:12:39;;;;;;;12.37;8.10;;;9.70;99.90;;;;;;5121053;28;20632;-57
2021/10/15 03:15:08;;;;;;;16.70;8.37;;;9.70;99.90;;;;;;5120173;28;20554;-58
2021/10/15 03:17:40;;;;;;;8.73;7.57;;;9.70;99.90;;;;;;5120630;28;20759;-60
2021/10/15 03:20:08;;;;;;;12.57;7.90;;;9.80;99.90;;;;;;5120663;28;20521;-55
2021/10/15 03:22:37;;;;;;;11.50;8.47;;;9.80;99.90;;;;;;5120759;28;20553;-59
2021/10/15 03:25:05;;;;;;;11.47;8.50;;;9.80;99.90;;;;;;5119982;28;20459;-58
2021/10/15 03:27:31;;;;;;;13.70;8.20;;;9.80;99.90;;;;;;5128649;27;20516;-57
2021/10/15 03:29:58;;;;;;;10.73;7.87;;;9.80;99.90;;;;;;5140951;27;20881;-61
2021/10/15 03:32:28;;;;;;;13.80;7.37;;;9.80;99.90;;;;;;5140581;27;20494;-58
2021/10/15 03:34:55;;;;;;;9.87;7.87;;;9.80;99.90;;;;;;5140918;27;20924;-59
2021/10/15 03:37:23;;;;;;;8.73;7.10;;;9.80;99.90;;;;;;5140465;27;20433;-59
2021/10/15 03:39:54;;;;;;;10.27;7.30;;;9.80;99.90;;;;;;5140996;27;20523;-58
2021/10/15 03:42:21;;;;;;;9.47;7.50;;;9.80;99.90;;;;;;5140615;27;20526;-59
2021/10/15 03:44:51;;;;;;;11.17;7.43;;;9.80;99.90;;;;;;5140760;27;20496;-58
2021/10/15 03:47:22;;;;;;;10.50;7.07;;;9.90;99.90;;;;;;5140524;27;20574;-59
2021/10/15 03:49:49;;;;;;;10.00;7.60;;;9.80;99.90;;;;;;5140505;27;20482;-56
2021/10/15 03:52:16;;;;;;;14.20;8.70;;;9.80;99.90;;;;;;5140376;27;20464;-57
2021/10/15 03:54:45;;;;;;;10.60;6.97;;;9.80;99.90;;;;;;5140088;27;20462;-59
2021/10/15 03:57:17;;;;;;;7.30;6.60;;;9.80;99.90;;;;;;5140161;27;20958;-59
2021/10/15 03:59:44;;;;;;;14.03;7.50;;;9.90;99.90;;;;;;5140355;27;20523;-58
2021/10/15 04:02:11;;;;;;;12.23;7.40;;;10.00;78.20;;;;;;5122657;27;20527;-58
2021/10/15 04:04:38;;;;;;;11.53;7.83;;;10.10;17.40;;;;;;5121290;27;20487;-60
2021/10/15 04:07:05;;;;;;;9.60;6.33;;;10.10;1.00;;;;;;5119168;28;20463;-59
2021/10/15 04:09:32;;;;;;;10.20;7.00;;;10.10;1.00;;;;;;5119746;28;20487;-56
2021/10/15 04:12:00;;;;;;;9.50;6.70;;;10.10;1.00;;;;;;5119499;28;20452;-60
2021/10/15 04:14:28;;;;;;;8.77;7.17;;;10.20;1.00;;;;;;5119813;28;20501;-58
2021/10/15 04:16:55;;;;;;;10.10;6.90;;;10.20;1.00;;;;;;5119789;28;20460;-58
2021/10/15 04:19:22;;;;;;;9.33;7.03;;;10.30;1.00;;;;;;5119364;28;20785;-58
2021/10/15 04:21:49;;;;;;;10.87;7.03;;;10.30;1.00;;;;;;5119180;28;20466;-55
2021/10/15 04:24:16;;;;;;;9.90;6.70;;;10.30;1.00;;;;;;5118886;28;20513;-58
2021/10/15 04:26:43;;;;;;;8.70;6.47;;;10.30;1.00;;;;;;5120743;27;20464;-58
2021/10/15 04:29:10;;;;;;;12.53;7.83;;;10.30;1.00;;;;;;5140024;27;20458;-60
2021/10/15 04:31:39;;;;;;;14.33;8.30;;;10.30;1.00;;;;;;5139642;27;20561;-59
2021/10/15 04:34:06;;;;;;;8.03;6.80;;;10.40;1.00;;;;;;5139669;27;20564;-59
2021/10/15 04:36:33;;;;;;;11.57;7.63;;;10.30;1.00;;;;;;5139994;27;20462;-59
2021/10/15 04:39:00;;;;;;;9.17;6.73;;;10.30;1.00;;;;;;5139897;27;20459;-62
2021/10/15 04:41:27;;;;;;;9.03;7.43;;;10.30;1.00;;;;;;5139567;27;20482;-59
2021/10/15 04:43:55;;;;;;;10.53;7.70;;;10.20;1.00;;;;;;5139220;27;20964;-57
2021/10/15 04:46:22;;;;;;;11.90;7.20;;;10.20;1.00;;;;;;5138650;27;20465;-57
2021/10/15 04:48:51;;;;;;;12.90;7.47;;;10.30;1.00;;;;;;5140035;27;20533;-59
2021/10/15 04:51:18;;;;;;;13.70;8.87;;;10.30;1.00;;;;;;5138997;27;20459;-56
2021/10/15 04:53:44;;;;;;;15.43;8.40;;;10.30;1.00;;;;;;5139213;27;20450;-57
2021/10/15 04:56:11;;;;;;;10.97;8.33;;;10.30;1.00;;;;;;5139002;27;20531;-58
2021/10/15 04:58:39;;;;;;;10.97;7.93;;;10.30;1.00;;;;;;5138946;27;20494;-59
2021/10/15 05:01:05;;;;;;;13.63;7.50;;;10.30;1.00;;;;;;5130798;27;20459;-57
2021/10/15 05:03:32;;;;;;;10.33;8.20;;;10.30;1.00;;;;;;5118278;28;20495;-57
2021/10/15 05:06:01;;;;;;;9.73;7.40;;;10.40;1.00;;;;;;5119060;28;20451;-56
2021/10/15 05:08:31;;;;;;;11.23;8.00;;;10.40;1.00;;;;;;5118136;28;20550;-58
2021/10/15 05:10:58;;;;;;;8.60;7.20;;;10.40;1.00;;;;;;5118477;28;20471;-58
2021/10/15 05:13:27;;;;;;;12.77;7.60;;;10.40;1.00;;;;;;5118713;28;20456;-59
2021/10/15 05:15:54;;;;;;;13.03;7.23;;;10.40;1.00;;;;;;5118415;28;20460;-57
2021/10/15 05:18:21;;;;;;;10.00;7.50;;;10.40;1.00;;;;;;5117898;28;20491;-60
2021/10/15 05:20:48;;;;;;;9.30;7.43;;;10.40;1.00;;;;;;5118336;28;20881;-59
2021/10/15 05:23:17;;;;;;;12.10;8.10;;;10.40;1.00;;;;;;5117756;28;20531;-57
2021/10/15 05:25:44;;;;;;;10.50;8.60;;;10.40;1.00;;;;;;5118252;28;20911;-57
2021/10/15 05:28:11;;;;;;;10.30;8.10;;;10.40;1.00;;;;;;5131537;27;20455;-59
2021/10/15 05:30:38;;;;;;;10.03;8.00;;;10.40;1.00;;;;;;5138614;27;20721;-60
2021/10/15 05:33:05;;;;;;;16.40;8.27;;;10.40;1.00;;;;;;5138382;27;20512;-61
2021/10/15 05:35:32;;;;;;;15.27;8.77;;;10.40;1.00;;;;;;5138962;27;20525;-58
2021/10/15 05:37:59;;;;;;;10.07;8.53;;;10.40;1.00;;;;;;5138528;27;20536;-58
2021/10/15 05:40:28;;;;;;;14.17;8.27;;;10.30;1.00;;;;;;5138225;27;20554;-59
2021/10/15 05:42:55;;;;;;;16.23;11.50;;;10.30;1.00;;;;;;5138564;27;20532;-57
2021/10/15 05:45:22;;;;;;;17.07;10.50;;;10.30;1.00;;;;;;5138386;27;20458;-57
2021/10/15 05:47:49;;;;;;;15.40;12.17;;;10.30;1.00;;;;;;5138398;27;20519;-59
2021/10/15 05:50:16;;;;;;;12.80;8.60;;;10.30;1.00;;;;;;5138160;27;20459;-55
2021/10/15 05:52:48;;;;;;;11.70;8.33;;;10.20;2.40;;;;;;5138118;27;20430;-59
2021/10/15 06:00:47;;;;;;;15.00;8.80;;;10.20;76.10;;;;;;5132237;27;20514;-57
2021/10/15 06:03:16;;;;;;;18.57;8.50;;;10.30;96.50;;;;;;5118236;28;20497;-57
2021/10/15 06:14:17;;;;;;;15.53;8.47;;;10.20;99.90;;;;;;5116849;28;20427;-58
2021/10/15 06:16:48;;;;;;;11.80;9.33;;;10.20;99.90;;;;;;5117851;28;20469;-58
2021/10/15 06:19:18;;;;;;;8.50;7.60;;;10.20;99.90;;;;;;5117894;28;20494;-57
2021/10/15 06:21:45;;;;;;;10.73;8.40;;;10.20;99.90;;;;;;5117476;28;20557;-59
2021/10/15 06:24:18;;;;;;;10.77;7.97;;;10.20;99.90;;;;;;5116909;28;20538;-56
2021/10/15 06:26:46;;;;;;;12.40;8.83;;;10.20;99.90;;;;;;5118815;28;20435;-56
2021/10/15 06:29:14;;;;;;;10.90;7.60;;;10.20;99.90;;;;;;5138352;28;20806;-58
2021/10/15 06:31:41;;;;;;;11.63;8.87;;;10.20;99.90;;;;;;5137979;28;20950;-56
2021/10/15 06:34:10;;;;;;;10.50;8.30;;;10.20;99.90;;;;;;5137571;28;20462;-57
2021/10/15 06:36:37;;;;;;;11.93;9.37;;;10.20;99.90;;;;;;5137943;28;20733;-57
2021/10/15 06:39:04;;;;;;;10.20;7.87;;;10.10;99.90;;;;;;5137881;28;20548;-57
2021/10/15 06:41:33;;;;;;;10.10;8.13;;;10.10;99.90;;;;;;5125509;28;20597;-58
2021/10/15 06:44:00;;;;;;;8.37;7.57;;;10.20;99.90;;;;;;5117403;28;20926;-53
2021/10/15 06:46:30;;;;;;;15.83;8.20;;;10.20;99.90;;;;;;5117466;28;20484;-58
2021/10/15 06:48:57;;;;;;;12.30;8.07;;;10.30;99.90;;;;;;5116676;28;20441;-57
2021/10/15 06:51:24;;;;;;;17.53;9.00;;;10.30;99.90;;;;;;5108771;28;20513;-57
2021/10/15 06:53:54;;;;;;;10.20;8.60;;;10.30;99.90;;;;;;5117507;28;20545;-58
2021/10/15 06:56:22;;;;;;;12.10;8.47;;;10.40;99.90;;;;;;5117017;28;20770;-58
2021/10/15 06:58:49;;;;;;;13.70;8.77;;;10.50;99.90;;;;;;5116950;28;20441;-56
2021/10/15 07:01:16;;;;;;;10.60;8.17;;;10.50;99.90;;;;;;5107469;28;20806;-58
2021/10/15 07:03:45;;;;;;;10.10;7.63;;;10.50;99.90;;;;;;5096493;28;20565;-59
2021/10/15 07:06:12;;;;;;;14.37;8.70;;;10.60;97.20;;;;;;5096660;28;20435;-59
2021/10/15 07:08:39;;;;;;;12.73;8.73;;;10.60;99.90;;;;;;5098348;28;20438;-54
2021/10/15 07:11:06;;;;;;;9.60;8.37;;;10.70;71.00;;;;;;5100166;28;20456;-58
2021/10/15 07:13:33;;;;;;;9.60;8.30;;;10.80;41.10;;;;;;5100502;28;20438;-56
2021/10/15 07:16:03;;;;;;;8.57;7.20;;;10.90;18.50;;;;;;5100376;28;20960;-56
2021/10/15 07:18:33;;;;;;;9.40;7.30;;;10.80;1.00;;;;;;5100371;28;20477;-56
2021/10/15 07:21:01;;;;;;;12.17;7.77;;;10.80;2.00;;;;;;5100085;28;20463;-55
2021/10/15 07:23:29;;;;;;;13.57;8.53;;;10.90;21.30;;;;;;5099553;28;20498;-56
2021/10/15 07:25:57;;;;;;;10.83;7.53;;;10.90;17.40;;;;;;5100460;28;20815;-58
2021/10/15 07:28:26;;;;;;;12.77;8.20;;;11.00;1.00;;;;;;5131233;27;20462;-57
2021/10/15 07:30:54;;;;;;;11.80;8.33;;;11.00;1.00;;;;;;5139676;27;20463;-57
2021/10/15 07:33:21;;;;;;;13.37;8.17;;;11.10;1.00;;;;;;5139933;27;20550;-57
2021/10/15 07:35:49;;;;;;;11.37;8.60;;;11.10;1.00;;;;;;5140345;27;20893;-56
2021/10/15 07:38:18;;;;;;;14.77;8.73;;;11.10;1.00;;;;;;5140035;27;20504;-57
2021/10/15 07:40:45;;;;;;;9.73;8.30;;;11.10;1.00;;;;;;5139807;27;20502;-57
2021/10/15 07:43:12;;;;;;;10.97;7.90;;;11.10;1.00;;;;;;5140588;27;20494;-56
2021/10/15 07:45:42;;;;;;;12.60;7.67;;;11.20;1.00;;;;;;5140584;27;20498;-57
2021/10/15 07:48:09;;;;;;;11.30;8.10;;;11.20;1.00;;;;;;5140468;27;20856;-57
2021/10/15 07:50:36;;;;;;;12.57;8.03;;;11.20;1.00;;;;;;5140609;27;20459;-56
2021/10/15 07:53:03;;;;;;;11.70;7.70;;;11.30;1.00;;;;;;5140625;27;20822;-58
2021/10/15 07:55:32;;;;;;;13.40;8.40;;;11.30;1.00;;;;;;5140615;27;20893;-58
2021/10/15 07:57:59;;;;;;;12.47;9.00;;;11.20;1.00;;;;;;5140138;27;20496;-56
2021/10/15 08:00:26;;;;;;;11.30;8.80;;;11.20;1.00;;;;;;5137329;27;20462;-58
2021/10/15 08:02:55;;;;;;;10.60;8.20;;;11.20;8.10;;;;;;5119693;28;20483;-54
2021/10/15 08:05:25;;;;;;;9.80;7.67;;;11.30;18.00;;;;;;5119744;28;20461;-55
2021/10/15 08:07:52;;;;;;;13.40;8.70;;;11.30;19.60;;;;;;5119603;28;20430;-57
2021/10/15 08:10:19;;;;;;;12.50;8.63;;;11.30;47.10;;;;;;5119557;28;20880;-57
2021/10/15 08:12:48;;;;;;;10.93;9.70;;;11.30;29.00;;;;;;5119588;28;20444;-56
2021/10/15 08:15:16;;;;;;;11.53;9.10;;;11.30;41.00;;;;;;5119804;28;20469;-58
2021/10/15 08:17:47;;;;;;;11.77;9.73;;;11.40;57.00;;;;;;5119760;28;20937;-58
2021/10/15 08:20:19;;;;;;;11.60;8.90;;;11.40;58.60;;;;;;5119396;28;20463;-52
2021/10/15 08:22:47;;;;;;;11.00;8.87;;;11.40;44.60;;;;;;5119524;28;20875;-58
2021/10/15 08:25:14;;;;;;;18.93;9.40;;;11.40;99.90;;;;;;5119321;28;20463;-56
2021/10/15 08:27:44;;;;;;;9.70;7.47;;;11.40;99.90;;;;;;5129186;27;20535;-52
2021/10/15 08:30:13;;;;;;;13.77;9.20;;;11.40;99.90;;;;;;5139308;27;20462;-54
2021/10/15 08:32:42;;;;;;;14.13;9.13;;;11.40;99.90;;;;;;5139722;27;20825;-58
2021/10/15 08:35:10;;;;;;;12.53;8.87;;;11.30;99.90;;;;;;5139641;27;20445;-54
2021/10/15 08:37:39;;;;;;;14.03;8.40;;;11.40;99.90;;;;;;5140187;27;20466;-58
2021/10/15 08:40:08;;;;;;;15.00;9.60;;;11.40;99.90;;;;;;5139599;27;20833;-59
2021/10/15 08:42:42;;;;;;;12.73;9.93;;;11.40;1.00;;;;;;5139377;27;20500;-57
2021/10/15 08:45:09;;;;;;;13.67;8.57;;;11.40;1.00;;;;;;5139691;27;20458;-54
2021/10/15 08:47:38;;;;;;;12.80;8.43;;;11.40;99.90;;;;;;5139832;27;20523;-57
2021/10/15 08:50:07;;;;;;;12.60;10.07;;;11.30;99.90;;;;;;5139131;27;20454;-59
2021/10/15 08:52:36;;;;;;;13.03;9.43;;;11.40;1.00;;;;;;5139395;27;20847;-57
2021/10/15 08:55:09;;;;;;;21.23;10.73;;;11.40;1.00;;;;;;5139544;27;20465;-58
2021/10/15 08:57:39;;;;;;;10.33;9.20;;;11.50;1.00;;;;;;5139690;27;20934;-58
2021/10/15 09:00:27;;;;;;;13.27;10.30;;;11.50;99.90;;;;;;5138707;27;20433;-57
2021/10/15 09:03:12;;;;;;;12.83;9.03;;;11.60;99.90;;;;;;5097987;28;20442;-58
2021/10/15 09:05:40;;;;;;;14.30;9.73;;;11.60;99.90;;;;;;5098539;28;20456;-58
2021/10/15 09:08:09;;;;;;;14.13;10.80;;;11.60;36.40;;;;;;5098055;28;20522;-58
2021/10/15 09:10:37;;;;;;;20.90;10.33;;;11.70;3.60;;;;;;5097920;28;20510;-58
2021/10/15 09:13:15;;;;;;;17.10;10.20;;;11.70;99.90;;;;;;5098549;28;20431;-59
2021/10/15 09:15:42;;;;;;;11.83;10.40;;;11.60;65.40;;;;;;5098084;28;20460;-59
2021/10/15 09:18:18;;;;;;;13.53;10.80;;;11.60;99.90;;;;;;5097843;28;20803;-63
2021/10/15 09:20:50;;;;;;;12.90;10.80;;;11.50;1.00;;;;;;5097996;28;20521;-60
2021/10/15 09:23:39;;;;;;;14.30;10.60;;;11.40;1.00;;;;;;5098190;28;20470;-64
2021/10/15 09:26:07;;;;;;;12.83;10.30;;;11.40;99.90;;;;;;5111768;27;20586;-64
2021/10/15 09:28:42;;;;;;;14.57;11.63;;;11.30;99.90;;;;;;5120990;27;20905;-63
2021/10/15 09:31:10;;;;;;;15.77;11.00;;;11.20;99.90;;;;;;5117728;28;20463;-63
2021/10/15 09:33:38;;;;;;;15.27;12.00;;;11.20;99.90;;;;;;5118220;28;20575;-63
2021/10/15 09:36:06;;;;;;;18.03;12.77;;;11.20;99.90;;;;;;5117813;28;20459;-63
2021/10/15 09:38:33;;;;;;;14.27;12.47;;;11.20;99.90;;;;;;5118076;28;20520;-64
2021/10/15 09:41:00;;;;;;;14.93;11.60;;;11.10;99.90;;;;;;5117794;28;20537;-64
2021/10/15 09:43:34;;;;;;;17.10;12.13;;;11.10;99.90;;;;;;5118048;28;20523;-63
2021/10/15 09:46:02;;;;;;;14.17;12.37;;;11.10;99.90;;;;;;5118457;28;20536;-62
2021/10/15 09:48:35;;;;;;;17.00;13.13;;;11.10;99.90;;;;;;5117731;28;20459;-63
2021/10/15 09:51:19;;;;;;;14.20;12.70;;;11.20;99.90;;;;;;5117769;28;20463;-63
2021/10/15 09:54:15;;;;;;;14.70;11.10;;;11.30;99.90;;;;;;5117863;28;20430;-63
2021/10/15 09:56:51;;;;;;;12.50;11.30;;;11.40;99.90;;;;;;5116961;28;20495;-63
2021/10/15 09:59:21;;;;;;;16.13;11.23;;;11.50;99.90;;;;;;5117722;28;20459;-63
2021/10/15 10:01:49;;;;;;;14.20;12.30;;;11.40;99.90;;;;;;5103476;28;20821;-63
2021/10/15 10:04:19;;;;;;;15.70;14.10;;;11.50;99.90;;;;;;5096641;28;20507;-64
2021/10/15 10:06:47;;;;;;;18.60;16.40;;;11.50;99.90;;;;;;5097178;28;20777;-64
2021/10/15 10:09:14;;;;;;;40.13;36.13;;;11.60;99.90;;;;;;5097265;28;20435;-65
2021/10/15 10:11:43;;;;;;;41.00;37.33;;;11.60;99.90;;;;;;5106273;28;20532;-65
2021/10/15 10:14:13;;;;;;;15.90;14.40;;;11.60;99.90;;;;;;5124338;28;20535;-65
2021/10/15 10:16:43;;;;;;;18.20;16.37;;;11.50;99.90;;;;;;5137713;28;20472;-64
2021/10/15 10:19:14;;;;;;;17.80;16.27;;;11.60;99.90;;;;;;5138216;28;20462;-64
2021/10/15 10:21:41;;;;;;;16.40;14.87;;;11.70;99.90;;;;;;5138041;28;20536;-62
2021/10/15 10:24:14;;;;;;;18.60;16.90;;;11.70;99.90;;;;;;5137785;28;20490;-63
2021/10/15 10:26:45;;;;;;;16.60;15.20;;;11.60;99.90;;;;;;5136274;28;20901;-63
2021/10/15 10:29:13;;;;;;;16.23;14.83;;;11.70;99.90;;;;;;5117609;28;20718;-63
2021/10/15 10:31:40;;;;;;;15.47;14.10;;;11.70;99.90;;;;;;5117408;28;20540;-64
2021/10/15 10:34:09;;;;;;;17.67;15.83;;;11.90;99.90;;;;;;5110122;28;20516;-65
2021/10/15 10:36:39;;;;;;;14.93;13.47;;;12.00;99.90;;;;;;5117514;28;20460;-65
2021/10/15 10:39:28;;;;;;;11.70;10.70;;;11.90;99.90;;;;;;5117288;28;20829;-65
2021/10/15 10:42:03;;;;;;;12.47;11.17;;;11.90;99.90;;;;;;5117312;28;20827;-65
2021/10/15 10:44:30;;;;;;;8.70;8.00;;;12.00;99.90;;;;;;5120256;28;20490;-66
2021/10/15 10:47:16;;;;;;;10.40;9.60;;;12.10;1.00;;;;;;5121163;28;20812;-65
2021/10/15 10:50:05;;;;;;;7.90;7.30;;;12.10;26.40;;;;;;5121623;28;20434;-65
2021/10/15 10:52:34;;;;;;;5.93;5.17;;;12.30;99.90;;;;;;5120782;28;20561;-65
2021/10/15 10:55:01;;;;;;;4.73;4.30;;;12.20;99.90;;;;;;5121034;28;20490;-65
2021/10/15 10:57:31;;;;;;;5.30;4.47;;;12.00;99.90;;;;;;5121153;28;20463;-65
2021/10/15 11:00:22;;;;;;;6.70;4.80;;;12.00;99.90;;;;;;5121459;28;20713;-65
2021/10/15 11:02:51;;;;;;;4.77;4.20;;;11.80;96.60;;;;;;5100458;28;20464;-65
2021/10/15 11:05:36;;;;;;;4.13;3.73;;;11.80;99.90;;;;;;5100401;28;20504;-65
2021/10/15 11:08:30;;;;;;;4.10;3.70;;;11.80;99.90;;;;;;5100482;28;20522;-65
2021/10/15 11:11:46;;;;;;;5.53;3.73;;;11.80;99.90;;;;;;5100779;28;20435;-65
2021/10/15 11:14:47;;;;;;;3.87;3.20;;;11.90;99.90;;;;;;5083116;28;20880;-65
2021/10/15 11:17:14;;;;;;;3.40;3.10;;;11.80;77.60;;;;;;5100290;28;20459;-64
2021/10/15 11:19:44;;;;;;;7.93;3.70;;;11.90;92.80;;;;;;5100614;28;20434;-64
2021/10/15 11:22:11;;;;;;;7.17;6.60;;;12.10;99.90;;;;;;5099989;28;20909;-64
2021/10/15 11:24:40;;;;;;;3.90;3.60;;;12.30;79.70;;;;;;5100316;28;20516;-64
2021/10/15 11:27:17;;;;;;;6.73;3.40;;;12.40;25.70;;;;;;5109931;27;20528;-64
2021/10/15 11:29:52;;;;;;;5.03;2.73;;;12.50;1.00;;;;;;5141296;27;20458;-64
2021/10/15 11:32:34;;;;;;;3.60;2.57;;;12.70;14.90;;;;;;5140594;27;20511;-64
2021/10/15 11:35:27;;;;;;;3.30;3.00;;;12.70;1.00;;;;;;5141036;27;20817;-64
2021/10/15 11:38:07;;;;;;;3.23;2.57;;;13.20;1.00;;;;;;5136819;27;20500;-64
2021/10/15 11:40:39;;;;;;;3.83;2.70;;;13.40;1.00;;;;;;5140831;27;20483;-64
2021/10/15 11:43:16;;;;;;;3.73;2.63;;;13.40;1.00;;;;;;5140754;27;20459;-64
2021/10/15 11:45:45;;;;;;;4.33;2.90;;;13.60;1.00;;;;;;5141026;27;20486;-64
2021/10/15 11:48:15;;;;;;;2.70;2.13;;;13.70;1.00;;;;;;5140475;27;20917;-64
2021/10/15 11:50:52;;;;;;;2.73;2.50;;;13.80;1.00;;;;;;5140669;27;20961;-64
2021/10/15 11:53:21;;;;;;;2.60;2.30;;;13.80;1.00;;;;;;5141045;27;20496;-64
2021/10/15 11:55:56;;;;;;;3.60;2.60;;;13.90;1.00;;;;;;5140312;27;20843;-63
2021/10/15 11:58:32;;;;;;;3.70;2.60;;;14.30;1.00;;;;;;5140137;27;20454;-63
2021/10/15 12:01:09;;;;;;;3.37;2.50;;;14.60;1.00;;;;;;5132544;27;20764;-63
2021/10/15 12:03:38;;;;;;;3.43;3.13;;;14.10;1.00;;;;;;5119678;27;20523;-62
2021/10/15 12:06:38;;;;;;;6.33;2.87;;;13.60;1.00;;;;;;5119780;28;20769;-62
2021/10/15 12:09:13;;;;;;;5.53;2.87;;;13.50;1.00;;;;;;5036658;28;20466;-62
2021/10/15 12:11:47;;;;;;;3.50;2.30;;;13.20;1.00;;;;;;5106657;28;20465;-62
2021/10/15 12:14:17;;;;;;;6.83;3.40;;;13.10;1.00;;;;;;5119127;28;20521;-62
2021/10/15 12:16:55;;;;;;;4.83;2.93;;;13.30;1.00;;;;;;5119537;28;20434;-62
2021/10/15 12:19:28;;;;;;;3.53;3.00;;;13.40;1.00;;;;;;5119554;28;20814;-62
2021/10/15 12:22:15;;;;;;;3.23;2.43;;;13.30;1.00;;;;;;5119720;28;20511;-62
2021/10/15 12:24:44;;;;;;;3.40;2.47;;;12.90;1.00;;;;;;5119408;28;20545;-62
2021/10/15 12:27:18;;;;;;;3.40;2.90;;;12.60;1.00;;;;;;5124756;27;20462;-62
2021/10/15 12:29:47;;;;;;;7.10;3.13;;;12.40;1.00;;;;;;5139729;27;20472;-61
2021/10/15 12:32:20;;;;;;;3.57;2.63;;;12.30;1.00;;;;;;5139436;27;20519;-62
2021/10/15 12:34:52;;;;;;;4.60;3.40;;;12.50;1.00;;;;;;5139859;27;20553;-62
2021/10/15 12:37:34;;;;;;;6.03;2.43;;;13.40;1.00;;;;;;5140108;27;20460;-62
2021/10/15 12:40:20;;;;;;;4.57;3.20;;;14.10;1.00;;;;;;5140071;27;20466;-62
2021/10/15 12:43:00;;;;;;;2.50;2.30;;;15.30;1.00;;;;;;5139696;27;20894;-62
2021/10/15 12:45:29;;;;;;;3.17;2.70;;;15.80;1.00;;;;;;5139949;27;20460;-62
2021/10/15 12:47:58;;;;;;;5.00;2.70;;;15.30;1.00;;;;;;5139574;27;20897;-61
2021/10/15 12:50:26;;;;;;;4.60;2.70;;;14.10;1.00;;;;;;5139383;27;20919;-62
2021/10/15 12:52:56;;;;;;;7.43;3.13;;;13.90;1.00;;;;;;5139666;27;20455;-62
2021/10/15 12:55:28;;;;;;;2.73;2.10;;;13.90;1.00;;;;;;5139378;27;20468;-62
2021/10/15 12:58:06;;;;;;;9.97;2.90;;;13.60;1.00;;;;;;5139416;27;20458;-62
2021/10/15 13:00:48;;;;;;;4.50;2.67;;;13.40;1.00;;;;;;5135528;27;20865;-61
2021/10/15 13:03:16;;;;;;;4.73;2.00;;;14.00;1.00;;;;;;5117777;28;20876;-62
2021/10/15 13:05:42;;;;;;;3.57;2.73;;;14.90;1.00;;;;;;5117781;28;20991;-62
2021/10/15 13:08:16;;;;;;;5.90;2.40;;;14.90;99.90;;;;;;5117153;28;20459;-62
2021/10/15 13:10:49;;;;;;;6.63;2.60;;;14.90;99.90;;;;;;5117955;28;20502;-62
2021/10/15 13:13:19;;;;;;;5.20;3.40;;;15.40;99.90;;;;;;5118122;28;20794;-62
2021/10/15 13:15:46;;;;;;;12.93;8.87;;;15.30;99.90;;;;;;5118187;28;20926;-62